createdAt,value
2023-11-07T00:01:06.738Z,1.00
2023-11-07T00:04:01.461Z,1.30
2023-11-07T00:06:33.728Z,1.10
2023-11-07T00:09:06.202Z,1.00
2023-11-07T00:11:39.667Z,1.00
2023-11-07T00:14:11.923Z,1.20
2023-11-07T00:16:43.997Z,1.10
2023-11-07T00:21:46.620Z,1.20
2023-11-07T00:24:19.260Z,1.30
2023-11-07T00:26:52.580Z,1.00
2023-11-07T00:29:26.649Z,1.00
2023-11-07T00:32:01.430Z,0.80
2023-11-07T00:34:35.685Z,0.90
2023-11-07T00:37:08.487Z,1.10
2023-11-07T00:39:40.895Z,1.10
2023-11-07T00:42:14.190Z,0.90
2023-11-07T00:44:47.563Z,1.00
2023-11-07T00:47:22.515Z,1.10
2023-11-07T00:49:57.438Z,1.10
2023-11-07T00:52:31.103Z,1.00
2023-11-07T00:55:06.272Z,1.10
2023-11-07T00:57:40.995Z,0.90
2023-11-07T01:00:16.474Z,0.90
2023-11-07T01:02:57.032Z,1.00
2023-11-07T01:05:32.075Z,0.90
2023-11-07T01:08:07.019Z,1.10
2023-11-07T01:10:40.481Z,1.10
2023-11-07T01:13:13.782Z,1.00
2023-11-07T01:15:47.951Z,1.00
2023-11-07T01:18:31.554Z,0.90
2023-11-07T01:21:08.925Z,0.90
2023-11-07T01:23:45.586Z,0.90
2023-11-07T01:26:21.375Z,1.00
2023-11-07T01:28:58.044Z,0.90
2023-11-07T01:31:33.313Z,1.20
2023-11-07T01:34:06.911Z,0.90
2023-11-07T01:36:41.619Z,0.90
2023-11-07T01:39:23.932Z,1.10
2023-11-07T01:41:59.980Z,0.90
2023-11-07T01:44:43.928Z,1.00
2023-11-07T01:47:24.608Z,1.10
2023-11-07T01:50:16.053Z,1.30
2023-11-07T01:52:48.910Z,0.80
2023-11-07T01:55:26.273Z,1.00
2023-11-07T01:58:11.436Z,1.70
2023-11-07T02:00:57.988Z,0.90
2023-11-07T02:03:37.637Z,0.90
2023-11-07T02:06:11.933Z,0.80
2023-11-07T02:08:44.813Z,0.80
2023-11-07T02:11:25.675Z,1.00
2023-11-07T02:13:58.551Z,1.00
2023-11-07T02:16:31.751Z,1.00
2023-11-07T02:19:03.984Z,0.90
2023-11-07T02:21:37.724Z,0.90
2023-11-07T02:24:12.082Z,0.90
2023-11-07T02:26:44.934Z,1.20
2023-11-07T02:29:16.897Z,1.00
2023-11-07T02:34:21.117Z,1.00
2023-11-07T02:36:53.419Z,1.10
2023-11-07T02:39:25.624Z,1.00
2023-11-07T02:41:57.713Z,1.00
2023-11-07T02:44:29.799Z,1.10
2023-11-07T02:47:01.877Z,0.90
2023-11-07T02:49:33.941Z,1.00
2023-11-07T02:52:06.457Z,0.90
2023-11-07T02:54:38.752Z,1.10
2023-11-07T02:57:11.454Z,1.20
2023-11-07T02:59:46.335Z,1.20
2023-11-07T03:02:19.021Z,1.10
2023-11-07T03:04:50.940Z,1.30
2023-11-07T03:07:23.623Z,1.00
2023-11-07T03:09:55.583Z,1.60
2023-11-07T03:12:27.464Z,2.00
2023-11-07T03:15:00.527Z,5.50
2023-11-07T03:17:32.716Z,3.80
2023-11-07T03:20:07.845Z,2.20
2023-11-07T03:22:41.929Z,2.40
2023-11-07T03:25:13.752Z,2.80
2023-11-07T03:27:45.616Z,1.60
2023-11-07T03:30:17.579Z,1.40
2023-11-07T03:35:21.202Z,1.50
2023-11-07T03:37:53.270Z,1.20
2023-11-07T03:40:25.001Z,1.50
2023-11-07T03:42:56.925Z,1.50
2023-11-07T03:45:31.104Z,1.50
2023-11-07T03:48:03.000Z,1.10
2023-11-07T03:50:35.227Z,1.10
2023-11-07T03:53:07.551Z,1.30
2023-11-07T03:55:39.361Z,0.90
2023-11-07T03:58:11.269Z,1.10
2023-11-07T04:00:44.658Z,1.20
2023-11-07T04:03:16.895Z,1.20
2023-11-07T04:05:49.060Z,1.10
2023-11-07T04:08:20.926Z,1.00
2023-11-07T04:10:52.860Z,1.70
2023-11-07T04:13:24.761Z,1.20
2023-11-07T04:15:58.110Z,1.20
2023-11-07T04:18:30.138Z,1.30
2023-11-07T04:23:32.559Z,1.20
2023-11-07T04:26:04.554Z,1.20
2023-11-07T04:31:09.961Z,1.10
2023-11-07T04:33:43.156Z,1.20
2023-11-07T04:36:17.787Z,1.10
2023-11-07T04:38:49.763Z,1.20
2023-11-07T04:43:52.051Z,1.20
2023-11-07T04:46:23.841Z,1.10
2023-11-07T04:48:56.597Z,1.20
2023-11-07T04:51:28.637Z,1.80
2023-11-07T04:54:00.453Z,1.20
2023-11-07T04:56:32.287Z,1.20
2023-11-07T04:59:04.241Z,1.30
2023-11-07T05:01:35.950Z,1.10
2023-11-07T05:04:08.851Z,1.40
2023-11-07T05:06:40.725Z,1.40
2023-11-07T05:09:13.902Z,1.00
2023-11-07T05:11:45.876Z,1.40
2023-11-07T05:14:20.459Z,1.50
2023-11-07T05:16:57.195Z,1.30
2023-11-07T05:19:29.047Z,1.20
2023-11-07T05:22:01.210Z,1.40
2023-11-07T05:24:33.005Z,1.10
2023-11-07T05:27:05.024Z,1.20
2023-11-07T05:32:09.296Z,1.80
2023-11-07T05:34:41.420Z,1.40
2023-11-07T05:37:13.488Z,1.40
2023-11-07T05:39:45.569Z,1.10
2023-11-07T05:42:17.432Z,1.10
2023-11-07T05:44:49.164Z,1.30
2023-11-07T05:47:21.183Z,1.60
2023-11-07T05:52:24.893Z,1.20
2023-11-07T05:54:56.665Z,1.40
2023-11-07T05:57:28.436Z,1.00
2023-11-07T06:00:01.535Z,1.30
2023-11-07T06:02:44.428Z,1.30
2023-11-07T06:05:16.458Z,1.20
2023-11-07T06:07:49.875Z,1.30
2023-11-07T06:10:21.797Z,1.40
2023-11-07T06:15:31.146Z,1.10
2023-11-07T06:18:04.768Z,1.10
2023-11-07T06:20:36.693Z,1.40
2023-11-07T06:25:38.828Z,1.30
2023-11-07T06:28:10.879Z,1.40
2023-11-07T06:30:42.966Z,1.40
2023-11-07T06:38:18.737Z,1.20
2023-11-07T06:40:50.630Z,1.40
2023-11-07T06:43:23.469Z,1.50
2023-11-07T06:45:55.212Z,1.20
2023-11-07T06:48:27.395Z,1.60
2023-11-07T06:50:59.546Z,1.30
2023-11-07T06:53:31.415Z,1.30
2023-11-07T06:56:03.119Z,1.30
2023-11-07T06:58:34.939Z,1.40
2023-11-07T07:01:07.526Z,1.30
2023-11-07T07:03:40.304Z,1.30
2023-11-07T07:06:13.707Z,1.40
2023-11-07T07:08:45.556Z,1.40
2023-11-07T07:11:17.275Z,1.30
2023-11-07T07:13:49.170Z,1.50
2023-11-07T07:16:24.237Z,1.90
2023-11-07T07:18:56.119Z,1.50
2023-11-07T07:21:28.570Z,1.70
2023-11-07T07:24:00.283Z,1.60
2023-11-07T07:26:32.169Z,1.40
2023-11-07T07:29:05.025Z,1.50
2023-11-07T07:31:38.635Z,1.30
2023-11-07T07:34:10.623Z,1.70
2023-11-07T07:36:45.605Z,1.70
2023-11-07T07:39:31.475Z,1.10
2023-11-07T07:42:12.655Z,1.50
2023-11-07T07:44:44.390Z,1.50
2023-11-07T07:47:16.829Z,1.50
2023-11-07T07:49:49.198Z,1.60
2023-11-07T07:52:33.292Z,1.30
2023-11-07T07:55:12.706Z,1.30
2023-11-07T07:57:49.245Z,2.00
2023-11-07T08:00:25.742Z,1.50
2023-11-07T08:02:57.809Z,1.50
2023-11-07T08:05:32.725Z,1.70
2023-11-07T08:08:04.471Z,1.20
2023-11-07T08:10:36.800Z,1.50
2023-11-07T08:13:11.659Z,1.50
2023-11-07T08:15:44.306Z,1.50
2023-11-07T08:18:17.398Z,1.30
2023-11-07T08:20:51.762Z,1.40
2023-11-07T08:23:23.810Z,1.40
2023-11-07T08:25:56.135Z,1.60
2023-11-07T08:28:30.019Z,1.30
2023-11-07T08:31:02.038Z,1.40
2023-11-07T08:36:04.453Z,1.80
2023-11-07T08:38:36.584Z,1.90
2023-11-07T08:41:08.696Z,1.60
2023-11-07T08:43:40.872Z,1.60
2023-11-07T08:46:12.921Z,1.60
2023-11-07T08:48:46.019Z,1.40
2023-11-07T08:51:18.026Z,1.50
2023-11-07T08:53:50.637Z,1.70
2023-11-07T08:56:25.913Z,1.40
2023-11-07T08:58:57.660Z,1.70
2023-11-07T09:01:30.628Z,1.60
2023-11-07T09:04:18.149Z,1.60
2023-11-07T09:06:50.297Z,1.80
2023-11-07T09:09:25.177Z,1.60
2023-11-07T09:11:59.463Z,1.60
2023-11-07T09:14:31.646Z,1.60
2023-11-07T09:17:03.529Z,1.50
2023-11-07T09:19:35.355Z,1.50
2023-11-07T09:22:08.691Z,1.50
2023-11-07T09:24:41.042Z,1.80
2023-11-07T09:29:43.579Z,1.90
2023-11-07T09:32:15.644Z,1.60
2023-11-07T09:34:47.580Z,1.70
2023-11-07T09:37:19.589Z,2.00
2023-11-07T09:42:21.683Z,1.60
2023-11-07T09:44:53.697Z,1.80
2023-11-07T09:49:57.135Z,1.30
2023-11-07T09:55:03.959Z,1.50
2023-11-07T09:57:37.808Z,1.70
2023-11-07T10:00:12.729Z,1.40
2023-11-07T10:02:46.273Z,1.70
2023-11-07T10:05:20.534Z,2.00
2023-11-07T10:07:53.726Z,1.60
2023-11-07T10:10:26.021Z,1.80
2023-11-07T10:13:12.045Z,1.50
2023-11-07T10:15:44.110Z,1.40
2023-11-07T10:20:56.501Z,1.40
2023-11-07T10:23:28.382Z,1.40
2023-11-07T10:26:14.658Z,1.60
2023-11-07T10:28:46.581Z,1.20
2023-11-07T10:31:24.625Z,1.50
2023-11-07T10:34:15.405Z,1.20
2023-11-07T10:39:19.266Z,1.20
2023-11-07T10:41:51.098Z,1.40
2023-11-07T10:44:30.493Z,1.30
2023-11-07T10:47:04.436Z,1.40
2023-11-07T10:49:38.326Z,1.30
2023-11-07T10:52:11.349Z,1.30
2023-11-07T10:54:43.215Z,1.20
2023-11-07T10:57:22.769Z,1.40
2023-11-07T11:00:06.905Z,1.20
2023-11-07T11:02:42.469Z,1.10
2023-11-07T11:05:17.792Z,1.20
2023-11-07T11:07:54.076Z,1.40
2023-11-07T11:10:29.772Z,1.10
2023-11-07T11:13:03.409Z,1.20
2023-11-07T11:15:36.577Z,1.10
2023-11-07T11:18:12.494Z,1.10
2023-11-07T11:20:54.755Z,1.40
2023-11-07T11:23:37.359Z,1.00
2023-11-07T11:26:22.576Z,1.00
2023-11-07T11:28:54.410Z,1.00
2023-11-07T11:31:27.620Z,1.20
2023-11-07T11:34:27.657Z,1.00
2023-11-07T11:37:03.332Z,1.00
2023-11-07T11:39:50.605Z,1.10
2023-11-07T11:42:22.507Z,0.90
2023-11-07T11:45:40.673Z,1.00
2023-11-07T11:48:19.584Z,1.00
2023-11-07T11:51:28.568Z,1.20
2023-11-07T11:54:01.324Z,0.90
2023-11-07T11:56:35.685Z,1.00
2023-11-07T11:59:12.700Z,0.70
2023-11-07T12:01:55.791Z,0.80
2023-11-07T12:04:35.295Z,0.90
2023-11-07T12:07:24.137Z,0.80
2023-11-07T12:09:59.209Z,0.80
2023-11-07T12:12:31.797Z,1.00
2023-11-07T12:15:04.949Z,1.00
2023-11-07T12:17:48.610Z,0.80
2023-11-07T12:20:21.575Z,0.50
2023-11-07T12:22:53.790Z,0.80
2023-11-07T12:25:26.494Z,0.80
2023-11-07T12:28:07.797Z,0.70
2023-11-07T12:30:40.890Z,1.60
2023-11-07T12:33:13.088Z,0.70
2023-11-07T12:35:50.464Z,0.90
2023-11-07T12:38:23.206Z,0.60
2023-11-07T12:40:55.869Z,1.00
2023-11-07T12:43:44.076Z,0.70
2023-11-07T12:46:18.627Z,0.90
2023-11-07T12:48:54.685Z,0.70
2023-11-07T12:51:26.774Z,0.80
2023-11-07T12:56:29.849Z,0.80
2023-11-07T12:59:14.837Z,0.80
2023-11-07T13:01:49.137Z,0.70
2023-11-07T13:04:22.117Z,0.70
2023-11-07T13:06:58.502Z,0.60
2023-11-07T13:09:32.770Z,0.70
2023-11-07T13:12:13.243Z,0.70
2023-11-07T13:14:46.206Z,0.70
2023-11-07T13:17:18.090Z,0.90
2023-11-07T13:19:51.996Z,0.90
2023-11-07T13:22:24.885Z,0.90
2023-11-07T13:24:57.033Z,0.80
2023-11-07T13:27:28.955Z,1.00
2023-11-07T13:32:31.762Z,0.80
2023-11-07T13:35:04.719Z,0.70
2023-11-07T13:37:37.539Z,0.60
2023-11-07T13:40:11.708Z,0.80
2023-11-07T13:42:44.544Z,0.80
2023-11-07T13:45:16.770Z,1.10
2023-11-07T13:47:48.787Z,0.80
2023-11-07T13:50:20.889Z,1.00
2023-11-07T13:52:57.808Z,1.10
2023-11-07T13:55:30.317Z,1.00
2023-11-07T13:58:03.686Z,0.80
2023-11-07T14:00:35.919Z,0.80
2023-11-07T14:03:08.791Z,1.00
2023-11-07T14:05:41.368Z,0.90
2023-11-07T14:08:13.216Z,0.80
2023-11-07T14:10:46.397Z,1.00
2023-11-07T14:13:19.891Z,0.70
2023-11-07T14:15:53.428Z,0.80
2023-11-07T14:18:27.937Z,0.80
2023-11-07T14:21:03.865Z,0.90
2023-11-07T14:23:36.857Z,0.80
2023-11-07T14:26:10.376Z,1.00
2023-11-07T14:31:21.218Z,1.50
2023-11-07T14:33:53.984Z,0.90
2023-11-07T14:36:25.926Z,1.00
2023-11-07T14:38:58.688Z,0.90
2023-11-07T14:41:30.665Z,1.00
2023-11-07T14:46:36.449Z,1.10
2023-11-07T14:49:09.287Z,1.30
2023-11-07T14:51:41.205Z,1.00
2023-11-07T14:54:15.303Z,1.00
2023-11-07T14:56:57.814Z,0.80
2023-11-07T14:59:35.967Z,0.80
2023-11-07T15:02:14.761Z,1.00
2023-11-07T15:04:54.725Z,1.10
2023-11-07T15:07:26.553Z,1.00
2023-11-07T15:09:58.600Z,0.90
2023-11-07T15:12:30.443Z,1.30
2023-11-07T15:15:02.363Z,0.80
2023-11-07T15:20:04.985Z,1.00
2023-11-07T15:22:36.764Z,0.90
2023-11-07T15:25:13.153Z,0.80
2023-11-07T15:27:46.460Z,0.80
2023-11-07T15:30:18.847Z,1.00
2023-11-07T15:32:50.910Z,0.80
2023-11-07T15:37:52.793Z,0.60
2023-11-07T15:40:24.575Z,0.90
2023-11-07T15:42:57.424Z,1.00
2023-11-07T15:45:32.497Z,0.80
2023-11-07T15:48:09.254Z,0.90
2023-11-07T15:50:42.751Z,0.60
2023-11-07T15:53:14.887Z,0.80
2023-11-07T15:55:46.755Z,1.00
2023-11-07T15:58:18.519Z,1.20
2023-11-07T16:00:51.226Z,1.10
2023-11-07T16:03:23.128Z,1.20
2023-11-07T16:08:27.029Z,1.30
2023-11-07T16:11:00.038Z,1.40
2023-11-07T16:13:31.813Z,1.10
2023-11-07T16:16:05.510Z,1.00
2023-11-07T16:18:37.377Z,1.20
2023-11-07T16:21:09.656Z,1.30
2023-11-07T16:23:44.053Z,1.50
2023-11-07T16:26:16.522Z,1.60
2023-11-07T16:28:48.353Z,1.60
2023-11-07T16:31:20.095Z,1.60
2023-11-07T16:33:52.099Z,1.70
2023-11-07T16:36:25.956Z,2.10
2023-11-07T16:38:58.463Z,1.50
2023-11-07T16:41:32.454Z,1.80
2023-11-07T16:44:04.255Z,1.40
2023-11-07T16:46:37.555Z,1.30
2023-11-07T16:49:09.699Z,1.50
2023-11-07T16:51:41.598Z,1.40
2023-11-07T16:54:13.419Z,1.00
2023-11-07T16:56:45.123Z,1.30
2023-11-07T16:59:18.146Z,1.30
2023-11-07T17:01:49.811Z,1.40
2023-11-07T17:04:21.694Z,1.40
2023-11-07T17:06:54.704Z,1.50
2023-11-07T17:09:26.659Z,1.30
2023-11-07T17:11:59.817Z,1.50
2023-11-07T17:14:31.671Z,1.20
2023-11-07T17:17:04.321Z,1.10
2023-11-07T17:19:36.377Z,1.10
2023-11-07T17:24:39.314Z,1.10
2023-11-07T17:27:11.224Z,1.00
2023-11-07T17:29:43.054Z,0.80
2023-11-07T17:32:15.426Z,1.10
2023-11-07T17:34:47.392Z,1.20
2023-11-07T17:37:19.209Z,1.20
2023-11-07T17:39:50.996Z,1.40
2023-11-07T17:42:22.862Z,1.40
2023-11-07T17:44:54.641Z,1.10
2023-11-07T17:47:28.841Z,1.20
2023-11-07T17:50:01.057Z,1.10
2023-11-07T17:52:33.101Z,1.50
2023-11-07T17:55:05.271Z,1.40
2023-11-07T17:57:37.285Z,1.60
2023-11-07T18:02:46.446Z,1.40
2023-11-07T18:05:18.456Z,1.60
2023-11-07T18:10:22.810Z,1.50
2023-11-07T18:12:54.569Z,1.40
2023-11-07T18:15:26.360Z,1.30
2023-11-07T18:17:59.556Z,1.30
2023-11-07T18:20:31.450Z,1.60
2023-11-07T18:23:03.154Z,1.50
2023-11-07T18:25:34.889Z,1.60
2023-11-07T18:28:09.887Z,1.30
2023-11-07T18:30:44.556Z,1.80
2023-11-07T18:33:16.428Z,1.50
2023-11-07T18:35:48.196Z,1.50
2023-11-07T18:38:20.301Z,1.50
2023-11-07T18:40:53.307Z,1.60
2023-11-07T18:43:25.092Z,1.60
2023-11-07T18:45:58.416Z,1.30
2023-11-07T18:48:30.231Z,1.60
2023-11-07T18:51:02.485Z,1.40
2023-11-07T18:53:43.617Z,1.20
2023-11-07T18:56:17.885Z,1.40
2023-11-07T18:58:49.720Z,1.50
2023-11-07T19:01:23.170Z,1.60
2023-11-07T19:03:57.557Z,1.30
2023-11-07T19:06:29.846Z,1.50
2023-11-07T19:09:01.699Z,1.60
2023-11-07T19:11:34.686Z,1.40
2023-11-07T19:14:06.392Z,1.50
2023-11-07T19:16:38.713Z,1.50
2023-11-07T19:19:10.467Z,1.30
2023-11-07T19:21:42.330Z,1.40
2023-11-07T19:24:18.121Z,1.50
2023-11-07T19:26:50.515Z,1.70
2023-11-07T19:29:22.626Z,1.60
2023-11-07T19:31:55.364Z,1.90
2023-11-07T19:34:27.223Z,1.60
2023-11-07T19:36:59.734Z,1.40
2023-11-07T19:42:05.206Z,1.40
2023-11-07T19:44:37.913Z,1.80
2023-11-07T19:47:09.957Z,1.60
2023-11-07T19:54:43.548Z,1.90
2023-11-07T19:57:16.126Z,1.60
2023-11-07T19:59:48.794Z,1.70
2023-11-07T20:02:23.869Z,1.50
2023-11-07T20:05:01.374Z,1.70
2023-11-07T20:07:43.677Z,1.90
2023-11-07T20:10:23.510Z,1.70
2023-11-07T20:12:55.309Z,1.50
2023-11-07T20:15:27.428Z,1.50
2023-11-07T20:20:54.135Z,1.40
2023-11-07T20:23:30.758Z,2.00
2023-11-07T20:26:06.856Z,1.70
2023-11-07T20:28:39.580Z,1.70
2023-11-07T20:31:12.193Z,1.70
2023-11-07T20:33:49.508Z,1.50
2023-11-07T20:36:22.549Z,2.20
2023-11-07T20:41:37.528Z,1.80
2023-11-07T20:44:09.760Z,1.70
2023-11-07T20:46:41.696Z,1.50
2023-11-07T20:49:14.166Z,2.30
2023-11-07T20:51:58.860Z,1.50
2023-11-07T20:54:31.490Z,1.50
2023-11-07T20:57:04.964Z,1.50
2023-11-07T20:59:41.019Z,1.50
2023-11-07T21:02:13.842Z,1.60
2023-11-07T21:04:50.212Z,1.50
2023-11-07T21:07:22.371Z,1.60
2023-11-07T21:12:25.259Z,1.40
2023-11-07T21:14:58.170Z,1.60
2023-11-07T21:17:30.249Z,1.50
2023-11-07T21:20:02.694Z,1.50
2023-11-07T21:22:34.693Z,1.60
2023-11-07T21:27:45.680Z,1.40
2023-11-07T21:30:18.732Z,1.20
2023-11-07T21:32:50.768Z,1.60
2023-11-07T21:35:23.585Z,1.50
2023-11-07T21:37:56.604Z,1.40
2023-11-07T21:40:28.977Z,1.50
2023-11-07T21:43:01.436Z,1.30
2023-11-07T21:45:33.566Z,1.60
2023-11-07T21:48:07.651Z,1.50
2023-11-07T21:50:40.118Z,1.50
2023-11-07T21:53:12.535Z,1.50
2023-11-07T21:55:44.509Z,1.50
2023-11-07T22:00:46.909Z,2.20
2023-11-07T22:05:49.434Z,1.90
2023-11-07T22:10:52.232Z,1.60
2023-11-07T22:13:25.732Z,1.60
2023-11-07T22:15:57.990Z,1.30
2023-11-07T22:21:01.723Z,1.50
2023-11-07T22:23:33.930Z,1.30
2023-11-07T22:26:06.048Z,1.40
2023-11-07T22:31:08.528Z,1.60
2023-11-07T22:33:42.949Z,1.30
2023-11-07T22:36:14.893Z,1.60
2023-11-07T22:38:46.880Z,1.60
2023-11-07T22:43:49.647Z,1.30
2023-11-07T22:46:22.050Z,1.60
2023-11-07T22:48:55.157Z,1.30
2023-11-07T22:51:27.902Z,1.70
2023-11-07T22:53:59.974Z,1.50
2023-11-07T22:56:31.949Z,1.50
2023-11-07T22:59:03.783Z,1.30
2023-11-07T23:01:35.564Z,1.30
2023-11-07T23:04:08.818Z,1.50
2023-11-07T23:06:41.303Z,1.50
2023-11-07T23:09:14.152Z,1.20
2023-11-07T23:11:46.582Z,1.40
2023-11-07T23:14:19.122Z,1.50
2023-11-07T23:16:52.480Z,1.40
2023-11-07T23:19:26.400Z,1.50
2023-11-07T23:21:58.319Z,1.80
2023-11-07T23:24:30.270Z,1.50
2023-11-07T23:27:02.369Z,1.50
2023-11-07T23:32:07.790Z,1.50
2023-11-07T23:34:39.585Z,1.60
2023-11-07T23:37:14.446Z,1.30
2023-11-07T23:39:46.590Z,1.70
2023-11-07T23:42:20.194Z,1.50
2023-11-07T23:44:52.162Z,1.60
2023-11-07T23:47:24.049Z,1.50
2023-11-07T23:49:55.887Z,1.50
2023-11-07T23:52:27.616Z,1.60
2023-11-07T23:55:00.069Z,1.50
2023-11-07T23:57:32.104Z,1.40
